Observation data for Muleshoe on 06/25/2019      Previous  Date  Next       Current Mesonet Observations  Soil Data  Daily Summary Page  Observations in Plain Language
KMUS 250500Z 14014KT 21/17 A2999 RMK A01 T02120167  RH  079%=      5-min Rain = 0
KMUS 250505Z 14014G19KT 21/17 A2999 RMK A01 T02130170  RH  081%=      5-min Rain = 0
KMUS 250510Z 14014G19KT 21/17 A2999 RMK A01 T02130173  RH  082%=      5-min Rain = 0
KMUS 250515Z 14014G19KT 21/18 A2999 RMK A01 T02130175  RH  083%=      5-min Rain = 0
KMUS 250520Z 14014G19KT 21/18 A2999 RMK A01 T02130177  RH  084%=      5-min Rain = 0
KMUS 250525Z 14013G19KT 21/18 A2999 RMK A01 T02140178  RH  085%=      5-min Rain = 0
KMUS 250530Z 14013G19KT 21/18 A2999 RMK A01 T02140179  RH  085%=      5-min Rain = 0
KMUS 250535Z 14014KT 22/18 A2999 RMK A01 T02150180  RH  085%=      5-min Rain = 0
KMUS 250540Z 14013G18KT 22/18 A2999 RMK A01 T02150181  RH  085%=      5-min Rain = 0
KMUS 250545Z 14014KT 21/18 A2999 RMK A01 T02140181  RH  086%=      5-min Rain = 0
KMUS 250550Z 14014G19KT 21/18 A2999 RMK A01 T02140181  RH  086%=      5-min Rain = 0
KMUS 250555Z 15015G20KT 21/18 A2999 RMK A01 T02140181  RH  086%=      5-min Rain = 0
KMUS 250600Z 15016KT 21/18 A2999 RMK A01 T02140180  RH  085%=      5-min Rain = 0
KMUS 250605Z 15014G19KT 21/18 A2999 RMK A01 T02140180  RH  086%=      5-min Rain = 0
KMUS 250610Z 15014KT 21/18 A2999 RMK A01 T02130180  RH  086%=      5-min Rain = 0
KMUS 250615Z 16015G22KT 21/18 A2999 RMK A01 T02130180  RH  086%=      5-min Rain = 0
KMUS 250620Z 16017G23KT 21/18 A2999 RMK A01 T02140181  RH  086%=      5-min Rain = 0
KMUS 250625Z 16017G22KT 21/18 A2998 RMK A01 T02140181  RH  086%=      5-min Rain = 0
KMUS 250630Z 16016G22KT 21/18 A2998 RMK A01 T02140182  RH  086%=      5-min Rain = 0
KMUS 250635Z 16015G21KT 21/18 A2998 RMK A01 T02140181  RH  086%=      5-min Rain = 0
KMUS 250640Z 16014G19KT 21/18 A2999 RMK A01 T02130181  RH  087%=      5-min Rain = 0
KMUS 250645Z 17014G19KT 21/18 A2998 RMK A01 T02130182  RH  087%=      5-min Rain = 0
KMUS 250650Z 17014G19KT 21/18 A2998 RMK A01 T02130183  RH  087%=      5-min Rain = 0
KMUS 250655Z 17014G19KT 21/18 A2998 RMK A01 T02130183  RH  088%=      5-min Rain = 0
KMUS 250700Z 17015G21KT 21/18 A2998 RMK A01 T02130177  RH  084%=      5-min Rain = 0
KMUS 250705Z 17016G22KT 22/17 A2998 RMK A01 T02150167  RH  078%=      5-min Rain = 0
KMUS 250710Z 17015KT 21/16 A2998 RMK A01 T02140164  RH  077%=      5-min Rain = 0
KMUS 250715Z 17014KT 21/16 A2998 RMK A01 T02120164  RH  078%=      5-min Rain = 0
KMUS 250720Z 17012G17KT 21/17 A2998 RMK A01 T02090165  RH  080%=      5-min Rain = 0
KMUS 250725Z 17011KT 21/17 A2998 RMK A01 T02070165  RH  080%=      5-min Rain = 0
KMUS 250730Z 17014G20KT 21/16 A2998 RMK A01 T02070160  RH  078%=      5-min Rain = 0
KMUS 250735Z 17014G20KT 21/15 A2998 RMK A01 T02070154  RH  075%=      5-min Rain = 0
KMUS 250740Z 17012KT 21/15 A2998 RMK A01 T02050151  RH  074%=      5-min Rain = 0
KMUS 250745Z 17012KT 20/15 A2999 RMK A01 T02040147  RH  073%=      5-min Rain = 0
KMUS 250750Z 17011KT 20/14 A2998 RMK A01 T02020144  RH  072%=      5-min Rain = 0
KMUS 250755Z 17011KT 20/14 A2998 RMK A01 T01990142  RH  073%=      5-min Rain = 0
KMUS 250800Z 17009KT 20/14 A2998 RMK A01 T01980141  RH  073%=      5-min Rain = 0
KMUS 250805Z 18008KT 20/14 A2998 RMK A01 T01950141  RH  074%=      5-min Rain = 0
KMUS 250810Z 18008KT 19/14 A2998 RMK A01 T01930140  RH  074%=      5-min Rain = 0
KMUS 250815Z 17007KT 19/14 A2999 RMK A01 T01910138  RH  075%=      5-min Rain = 0
KMUS 250820Z 17007KT 19/14 A2999 RMK A01 T01890137  RH  075%=      5-min Rain = 0
KMUS 250825Z 17006KT 19/14 A2999 RMK A01 T01870136  RH  075%=      5-min Rain = 0
KMUS 250830Z 18005KT 19/14 A2999 RMK A01 T01850135  RH  076%=      5-min Rain = 0
KMUS 250835Z 17004KT 18/13 A2999 RMK A01 T01830134  RH  076%=      5-min Rain = 0
KMUS 250840Z 18004KT 18/13 A2999 RMK A01 T01820134  RH  076%=      5-min Rain = 0
KMUS 250845Z 19004KT 18/13 A2999 RMK A01 T01810133  RH  076%=      5-min Rain = 0
KMUS 250850Z 20003KT 18/13 A2999 RMK A01 T01780132  RH  077%=      5-min Rain = 0
KMUS 250855Z 19003KT 18/13 A2999 RMK A01 T01750132  RH  079%=      5-min Rain = 0
KMUS 250900Z 21002KT 17/13 A2999 RMK A01 T01730132  RH  080%=      5-min Rain = 0
KMUS 250905Z 20002KT 17/13 A2999 RMK A01 T01720132  RH  080%=      5-min Rain = 0
KMUS 250910Z 22003KT 17/13 A2999 RMK A01 T01720132  RH  080%=      5-min Rain = 0
KMUS 250915Z 21003KT 17/13 A2999 RMK A01 T01700130  RH  081%=      5-min Rain = 0
KMUS 250920Z 21003KT 17/13 A2999 RMK A01 T01670130  RH  082%=      5-min Rain = 0
KMUS 250925Z 20003KT 17/13 A2999 RMK A01 T01650130  RH  083%=      5-min Rain = 0
KMUS 250930Z 20004KT 16/13 A2999 RMK A01 T01640130  RH  084%=      5-min Rain = 0
KMUS 250935Z 20004KT 16/13 A2999 RMK A01 T01620129  RH  084%=      5-min Rain = 0
KMUS 250940Z 21005KT 16/13 A2999 RMK A01 T01600128  RH  085%=      5-min Rain = 0
KMUS 250945Z 22004KT 16/13 A2999 RMK A01 T01570127  RH  086%=      5-min Rain = 0
KMUS 250950Z 23003KT 16/13 A2999 RMK A01 T01550128  RH  087%=      5-min Rain = 0
KMUS 250955Z 28003KT 16/13 A30 RMK A01 T01550128  RH  088%=      5-min Rain = 0
KMUS 251000Z 31004KT 15/13 A30 RMK A01 T01520126  RH  088%=      5-min Rain = 0
KMUS 251005Z 31003KT 15/13 A30 RMK A01 T01480126  RH  090%=      5-min Rain = 0
KMUS 251010Z 29003KT 15/13 A30 RMK A01 T01490128  RH  091%=      5-min Rain = 0
KMUS 251015Z 27003KT 15/13 A30 RMK A01 T01500128  RH  090%=      5-min Rain = 0
KMUS 251020Z 27004KT 15/13 A3001 RMK A01 T01500127  RH  089%=      5-min Rain = 0
KMUS 251025Z 29004KT 15/13 A3001 RMK A01 T01490125  RH  089%=      5-min Rain = 0
KMUS 251030Z 28003KT 15/13 A3001 RMK A01 T01480125  RH  089%=      5-min Rain = 0
KMUS 251035Z 26001KT 15/12 A3002 RMK A01 T01460124  RH  090%=      5-min Rain = 0
KMUS 251040Z 32002KT 15/12 A3002 RMK A01 T01450124  RH  090%=      5-min Rain = 0
KMUS 251045Z 31004KT 14/12 A3003 RMK A01 T01430123  RH  091%=      5-min Rain = 0
KMUS 251050Z 28003KT 14/13 A3003 RMK A01 T01440125  RH  092%=      5-min Rain = 0
KMUS 251055Z 28003KT 15/13 A3004 RMK A01 T01450125  RH  091%=      5-min Rain = 0
KMUS 251100Z 27003KT 14/12 A3003 RMK A01 T01430121  RH  090%=      5-min Rain = 0
KMUS 251105Z 25004KT 14/12 A3003 RMK A01 T01380118  RH  091%=      5-min Rain = 0
KMUS 251110Z 24005KT 14/12 A3003 RMK A01 T01360118  RH  092%=      5-min Rain = 0
KMUS 251115Z 23006KT 14/12 A3003 RMK A01 T01380121  RH  093%=      5-min Rain = 0
KMUS 251120Z 22006KT 14/13 A3004 RMK A01 T01440125  RH  092%=      5-min Rain = 0
KMUS 251125Z 22005KT 15/12 A3004 RMK A01 T01450123  RH  090%=      5-min Rain = 0
KMUS 251130Z 22005KT 14/12 A3004 RMK A01 T01430121  RH  090%=      5-min Rain = 0
KMUS 251135Z 22005KT 14/12 A3004 RMK A01 T01400118  RH  090%=      5-min Rain = 0
KMUS 251140Z 21005KT 14/12 A3004 RMK A01 T01380117  RH  090%=      5-min Rain = 0
KMUS 251145Z 22005KT 14/12 A3004 RMK A01 T01380117  RH  091%=      5-min Rain = 0
KMUS 251150Z 22005KT 14/12 A3004 RMK A01 T01360116  RH  091%=      5-min Rain = 0
KMUS 251155Z 22005KT 14/12 A3004 RMK A01 T01360117  RH  092%=      5-min Rain = 0
KMUS 251200Z 22006KT 14/12 A3004 RMK A01 T01350117  RH  092%=      5-min Rain = 0
KMUS 251205Z 23006KT 14/12 A3004 RMK A01 T01360119  RH  093%=      5-min Rain = 0
KMUS 251210Z 23005KT 14/12 A3004 RMK A01 T01400123  RH  093%=      5-min Rain = 0
KMUS 251215Z 23005KT 14/13 A3004 RMK A01 T01440126  RH  092%=      5-min Rain = 0
KMUS 251220Z 23003KT 15/13 A3004 RMK A01 T01460127  RH  092%=      5-min Rain = 0
KMUS 251225Z 23004KT 15/13 A3004 RMK A01 T01480128  RH  091%=      5-min Rain = 0
KMUS 251230Z 23003KT 15/13 A3004 RMK A01 T01510130  RH  091%=      5-min Rain = 0
KMUS 251235Z 23003KT 15/13 A3004 RMK A01 T01540133  RH  091%=      5-min Rain = 0
KMUS 251240Z 23002KT 16/14 A3004 RMK A01 T01590136  RH  090%=      5-min Rain = 0
KMUS 251245Z 26002KT 16/14 A3004 RMK A01 T01630139  RH  089%=      5-min Rain = 0
KMUS 251250Z 26002KT 17/14 A3004 RMK A01 T01670140  RH  088%=      5-min Rain = 0
KMUS 251255Z 24002KT 17/14 A3004 RMK A01 T01720141  RH  086%=      5-min Rain = 0
KMUS 251300Z 25002KT 18/14 A3004 RMK A01 T01760142  RH  084%=      5-min Rain = 0
KMUS 251305Z 25002KT 18/14 A3004 RMK A01 T01800143  RH  082%=      5-min Rain = 0
KMUS 251310Z 24002KT 18/14 A3004 RMK A01 T01830142  RH  080%=      5-min Rain = 0
KMUS 251315Z 26002KT 19/14 A3004 RMK A01 T01860141  RH  078%=      5-min Rain = 0
KMUS 251320Z 24002KT 19/14 A3004 RMK A01 T01900143  RH  077%=      5-min Rain = 0
KMUS 251325Z 23002KT 19/14 A3005 RMK A01 T01940144  RH  076%=      5-min Rain = 0
KMUS 251330Z 23002KT 20/14 A3005 RMK A01 T01970144  RH  075%=      5-min Rain = 0
KMUS 251335Z 22003KT 20/15 A3005 RMK A01 T02020145  RH  073%=      5-min Rain = 0
KMUS 251340Z 22004KT 21/14 A3005 RMK A01 T02050144  RH  071%=      5-min Rain = 0
KMUS 251345Z 22005KT 21/15 A3005 RMK A01 T02080145  RH  070%=      5-min Rain = 0
KMUS 251350Z 23006G11KT 21/15 A3005 RMK A01 T02130148  RH  069%=      5-min Rain = 0
KMUS 251355Z 22009KT 22/15 A3005 RMK A01 T02170147  RH  067%=      5-min Rain = 0
KMUS 251400Z 22009KT 22/15 A3005 RMK A01 T02200149  RH  067%=      5-min Rain = 0
KMUS 251405Z 21010KT 22/15 A3005 RMK A01 T02230150  RH  066%=      5-min Rain = 0
KMUS 251410Z 22011G17KT 23/15 A3005 RMK A01 T02260150  RH  065%=      5-min Rain = 0
KMUS 251415Z 21011G17KT 23/15 A3005 RMK A01 T02290152  RH  065%=      5-min Rain = 0
KMUS 251420Z 21014KT 23/15 A3005 RMK A01 T02320152  RH  063%=      5-min Rain = 0
KMUS 251425Z 22014KT 23/15 A3005 RMK A01 T02330151  RH  063%=      5-min Rain = 0
KMUS 251430Z 22012KT 24/15 A3005 RMK A01 T02350152  RH  062%=      5-min Rain = 0
KMUS 251435Z 22012KT 24/15 A3005 RMK A01 T02370151  RH  062%=      5-min Rain = 0
KMUS 251440Z 22012KT 24/15 A3005 RMK A01 T02400153  RH  061%=      5-min Rain = 0
KMUS 251445Z 21013KT 24/15 A3005 RMK A01 T02420152  RH  060%=      5-min Rain = 0
KMUS 251450Z 21013G18KT 25/15 A3005 RMK A01 T02450151  RH  058%=      5-min Rain = 0
KMUS 251455Z 21014KT 25/15 A3005 RMK A01 T02460150  RH  058%=      5-min Rain = 0
KMUS 251500Z 22012KT 25/15 A3005 RMK A01 T02480152  RH  058%=      5-min Rain = 0
KMUS 251505Z 21012KT 25/15 A3005 RMK A01 T02510151  RH  056%=      5-min Rain = 0
KMUS 251510Z 20010G15KT 25/15 A3005 RMK A01 T02530154  RH  057%=      5-min Rain = 0
KMUS 251515Z 21011G16KT 26/15 A3005 RMK A01 T02550154  RH  056%=      5-min Rain = 0
KMUS 251520Z 22012KT 25/15 A3005 RMK A01 T02540150  RH  055%=      5-min Rain = 0
KMUS 251525Z 21010G15KT 26/15 A3005 RMK A01 T02560153  RH  055%=      5-min Rain = 0
KMUS 251530Z 21009KT 26/16 A3005 RMK A01 T02600155  RH  055%=      5-min Rain = 0
KMUS 251535Z 21011KT 26/15 A3005 RMK A01 T02610154  RH  054%=      5-min Rain = 0
KMUS 251540Z 21012KT 27/15 A3005 RMK A01 T02660151  RH  052%=      5-min Rain = 0
KMUS 251545Z 20010KT 27/15 A3005 RMK A01 T02680153  RH  052%=      5-min Rain = 0
KMUS 251550Z 20010KT 27/15 A3004 RMK A01 T02700152  RH  051%=      5-min Rain = 0
KMUS 251555Z 21011G16KT 27/15 A3004 RMK A01 T02710150  RH  050%=      5-min Rain = 0
KMUS 251600Z 21011KT 27/15 A3004 RMK A01 T02740150  RH  049%=      5-min Rain = 0
KMUS 251605Z 21011KT 28/15 A3004 RMK A01 T02750149  RH  048%=      5-min Rain = 0
KMUS 251610Z 21011G17KT 28/15 A3004 RMK A01 T02790149  RH  047%=      5-min Rain = 0
KMUS 251615Z 21010KT 28/15 A3004 RMK A01 T02810149  RH  047%=      5-min Rain = 0
KMUS 251620Z 22011KT 28/15 A3004 RMK A01 T02830147  RH  045%=      5-min Rain = 0
KMUS 251625Z 22010G15KT 29/15 A3004 RMK A01 T02850148  RH  045%=      5-min Rain = 0
KMUS 251630Z 21010KT 29/15 A3004 RMK A01 T02890147  RH  044%=      5-min Rain = 0
KMUS 251635Z 20011KT 29/15 A3004 RMK A01 T02920147  RH  043%=      5-min Rain = 0
KMUS 251640Z 20011KT 30/15 A3004 RMK A01 T02950146  RH  042%=      5-min Rain = 0
KMUS 251645Z 21011G17KT 30/14 A3004 RMK A01 T02950142  RH  041%=      5-min Rain = 0
KMUS 251650Z 20011G18KT 30/14 A3004 RMK A01 T02980138  RH  039%=      5-min Rain = 0
KMUS 251655Z 19009KT 30/14 A3004 RMK A01 T02990141  RH  040%=      5-min Rain = 0
KMUS 251700Z 20010KT 30/14 A3004 RMK A01 T03010139  RH  039%=      5-min Rain = 0
KMUS 251705Z 20011G18KT 31/13 A3004 RMK A01 T03050129  RH  036%=      5-min Rain = 0
KMUS 251710Z 22011G16KT 31/13 A3004 RMK A01 T03060129  RH  035%=      5-min Rain = 0
KMUS 251715Z 20010G16KT 31/13 A3004 RMK A01 T03080128  RH  035%=      5-min Rain = 0
KMUS 251720Z 20011G17KT 31/12 A3004 RMK A01 T03100122  RH  033%=      5-min Rain = 0
KMUS 251725Z 21011G17KT 31/12 A3003 RMK A01 T03130119  RH  032%=      5-min Rain = 0
KMUS 251730Z 21011KT 32/12 A3003 RMK A01 T03150116  RH  031%=      5-min Rain = 0
KMUS 251735Z 22011KT 32/12 A3003 RMK A01 T03180115  RH  030%=      5-min Rain = 0
KMUS 251740Z 21012KT 32/11 A3003 RMK A01 T03190107  RH  028%=      5-min Rain = 0
KMUS 251745Z 20013G18KT 32/09 A3003 RMK A01 T03210092  RH  025%=      5-min Rain = 0
KMUS 251750Z 20012G17KT 32/10 A3003 RMK A01 T03230100  RH  026%=      5-min Rain = 0
KMUS 251755Z 21012G18KT 33/07 A3002 RMK A01 T03250073  RH  022%=      5-min Rain = 0
KMUS 251800Z 19011G17KT 33/09 A3002 RMK A01 T03280085  RH  023%=      5-min Rain = 0
KMUS 251805Z 19011KT 33/08 A3002 RMK A01 T03280083  RH  023%=      5-min Rain = 0
KMUS 251810Z 18010KT 33/07 A3002 RMK A01 T03290070  RH  021%=      5-min Rain = 0
KMUS 251815Z 20012KT 33/06 A3002 RMK A01 T03310061  RH  019%=      5-min Rain = 0
KMUS 251820Z 20010G16KT 33/06 A3002 RMK A01 T03310062  RH  019%=      5-min Rain = 0
KMUS 251825Z 20011G17KT 33/06 A3002 RMK A01 T03310062  RH  019%=      5-min Rain = 0
KMUS 251830Z 19011KT 33/06 A3002 RMK A01 T03330064  RH  019%=      5-min Rain = 0
KMUS 251835Z 19009KT 33/07 A3002 RMK A01 T03340066  RH  020%=      5-min Rain = 0
KMUS 251840Z 22011KT 34/06 A3002 RMK A01 T03350061  RH  019%=      5-min Rain = 0
KMUS 251845Z 22009G14KT 33/05 A3001 RMK A01 T03330054  RH  018%=      5-min Rain = 0
KMUS 251850Z 21008KT 33/06 A3001 RMK A01 T03330061  RH  019%=      5-min Rain = 0
KMUS 251855Z 19009G14KT 34/07 A3001 RMK A01 T03360069  RH  020%=      5-min Rain = 0
KMUS 251900Z 18006G12KT 34/05 A3001 RMK A01 T03380051  RH  017%=      5-min Rain = 0
KMUS 251905Z 18011KT 34/07 A3001 RMK A01 T03390070  RH  019%=      5-min Rain = 0
KMUS 251910Z 17012KT 34/06 A3001 RMK A01 T03400061  RH  018%=      5-min Rain = 0
KMUS 251915Z 18009KT 34/05 A3001 RMK A01 T03400052  RH  017%=      5-min Rain = 0
KMUS 251920Z 18006KT 34/05 A3001 RMK A01 T03380049  RH  017%=      5-min Rain = 0
KMUS 251925Z 19008G13KT 34/05 A30 RMK A01 T03400052  RH  017%=      5-min Rain = 0
KMUS 251930Z 18008KT 34/04 A30 RMK A01 T03410043  RH  016%=      5-min Rain = 0
KMUS 251935Z 19006KT 34/04 A30 RMK A01 T03410039  RH  015%=      5-min Rain = 0
KMUS 251940Z 22007KT 34/04 A30 RMK A01 T03400044  RH  016%=      5-min Rain = 0
KMUS 251945Z 19005KT 34/03 A30 RMK A01 T03410034  RH  015%=      5-min Rain = 0
KMUS 251950Z 14009KT 34/05 A30 RMK A01 T03440049  RH  016%=      5-min Rain = 0
KMUS 251955Z 15007KT 35/04 A2999 RMK A01 T03460040  RH  015%=      5-min Rain = 0
KMUS 252000Z 15008KT 35/04 A2999 RMK A01 T03460042  RH  015%=      5-min Rain = 0
KMUS 252005Z 17009G14KT 34/03 A2999 RMK A01 T03400034  RH  015%=      5-min Rain = 0
KMUS 252010Z 19009G16KT 34/04 A2999 RMK A01 T03440036  RH  015%=      5-min Rain = 0
KMUS 252015Z 19012KT 35/03 A2999 RMK A01 T03470028  RH  014%=      5-min Rain = 0
KMUS 252020Z 21009KT 35/02 A2999 RMK A01 T03470021  RH  013%=      5-min Rain = 0
KMUS 252025Z 21008KT 35/03 A2998 RMK A01 T03480029  RH  014%=      5-min Rain = 0
KMUS 252030Z 21006KT 35/03 A2998 RMK A01 T03450026  RH  014%=      5-min Rain = 0
KMUS 252035Z 17007G13KT 34/03 A2998 RMK A01 T03420026  RH  014%=      5-min Rain = 0
KMUS 252040Z 17004G10KT 35/01 A2998 RMK A01 T03450014  RH  013%=      5-min Rain = 0
KMUS 252045Z 14006G15KT 35/02 A2998 RMK A01 T03480020  RH  013%=      5-min Rain = 0
KMUS 252050Z 13008G14KT 35/01 A2998 RMK A01 T03480005  RH  012%=      5-min Rain = 0
KMUS 252055Z 16007KT 35/01 A2997 RMK A01 T03490014  RH  012%=      5-min Rain = 0
KMUS 252100Z 19008KT 35/01 A2997 RMK A01 T03480013  RH  012%=      5-min Rain = 0
KMUS 252105Z 16010G15KT 35/01 A2997 RMK A01 T03500014  RH  012%=      5-min Rain = 0
KMUS 252110Z 15009G15KT 35/01 A2997 RMK A01 T03510014  RH  012%=      5-min Rain = 0
KMUS 252115Z 17006G13KT 35/01 A2997 RMK A01 T03490014  RH  012%=      5-min Rain = 0
KMUS 252120Z 16007G12KT 35/02 A2997 RMK A01 T03490016  RH  012%=      5-min Rain = 0
KMUS 252125Z 16010KT 35/03 A2997 RMK A01 T03480027  RH  014%=      5-min Rain = 0
KMUS 252130Z 14009G15KT 34/03 A2996 RMK A01 T03440026  RH  014%=      5-min Rain = 0
KMUS 252135Z 14011G21KT 35/03 A2996 RMK A01 T03470025  RH  013%=      5-min Rain = 0
KMUS 252140Z 15008KT 34/02 A2996 RMK A01 T03420022  RH  014%=      5-min Rain = 0
KMUS 252145Z 14013KT 34/02 A2996 RMK A01 T03380018  RH  013%=      5-min Rain = 0
KMUS 252150Z 15011KT 34/02 A2996 RMK A01 T03390024  RH  014%=      5-min Rain = 0
KMUS 252155Z 16011KT 35/03 A2995 RMK A01 T03460028  RH  014%=      5-min Rain = 0
KMUS 252200Z 16010KT 35/03 A2995 RMK A01 T03500031  RH  014%=      5-min Rain = 0
KMUS 252205Z 18009KT 35/03 A2995 RMK A01 T03500031  RH  014%=      5-min Rain = 0
KMUS 252210Z 17011G16KT 35/03 A2995 RMK A01 T03500030  RH  014%=      5-min Rain = 0
KMUS 252215Z 18011G16KT 35/03 A2995 RMK A01 T03490027  RH  013%=      5-min Rain = 0
KMUS 252220Z 16007KT 34/02 A2995 RMK A01 T03440023  RH  013%=      5-min Rain = 0
KMUS 252225Z 15009G15KT 33/03 A2995 RMK A01 T03340026  RH  015%=      5-min Rain = 0
KMUS 252230Z 17009G14KT 33/02 A2995 RMK A01 T03280021  RH  014%=      5-min Rain = 0
KMUS 252235Z 16012KT 33/02 A2995 RMK A01 T03280020  RH  014%=      5-min Rain = 0
KMUS 252240Z 15010KT 33/03 A2995 RMK A01 T03320025  RH  015%=      5-min Rain = 0
KMUS 252245Z 16008G13KT 34/02 A2994 RMK A01 T03400023  RH  014%=      5-min Rain = 0
KMUS 252250Z 16011KT 35/03 A2994 RMK A01 T03470030  RH  014%=      5-min Rain = 0
KMUS 252255Z 17011KT 35/03 A2994 RMK A01 T03470025  RH  013%=      5-min Rain = 0
KMUS 252300Z 18011KT 35/02 A2994 RMK A01 T03460024  RH  013%=      5-min Rain = 0
KMUS 252305Z 18013G19KT 35/03 A2994 RMK A01 T03450029  RH  014%=      5-min Rain = 0
KMUS 252310Z 17013G19KT 34/03 A2994 RMK A01 T03410031  RH  014%=      5-min Rain = 0
KMUS 252315Z 17010G17KT 34/03 A2994 RMK A01 T03420032  RH  015%=      5-min Rain = 0
KMUS 252320Z 16011KT 34/03 A2994 RMK A01 T03400031  RH  015%=      5-min Rain = 0
KMUS 252325Z 15013KT 34/03 A2993 RMK A01 T03410028  RH  014%=      5-min Rain = 0
KMUS 252330Z 15011G16KT 34/03 A2993 RMK A01 T03410026  RH  014%=      5-min Rain = 0
KMUS 252335Z 16012KT 34/03 A2993 RMK A01 T03410026  RH  014%=      5-min Rain = 0
KMUS 252340Z 20010G17KT 34/02 A2993 RMK A01 T03410024  RH  014%=      5-min Rain = 0
KMUS 252345Z 19012KT 34/02 A2993 RMK A01 T03410022  RH  014%=      5-min Rain = 0
KMUS 252350Z 18010KT 34/03 A2993 RMK A01 T03400031  RH  015%=      5-min Rain = 0
KMUS 252355Z 19012KT 34/03 A2992 RMK A01 T03390026  RH  014%=      5-min Rain = 0
KMUS 260000Z 18011KT 34/03 A2992 RMK A01 T03360030  RH  015%=      5-min Rain = 0
KMUS 260005Z 18012KT 34/03 A2992 RMK A01 T03350026  RH  015%=      5-min Rain = 0
KMUS 260010Z 18009KT 34/03 A2992 RMK A01 T03350034  RH  015%=      5-min Rain = 0
KMUS 260015Z 17009KT 33/04 A2992 RMK A01 T03340044  RH  017%=      5-min Rain = 0
KMUS 260020Z 17009KT 33/05 A2992 RMK A01 T03330047  RH  017%=      5-min Rain = 0
KMUS 260025Z 16008KT 33/05 A2992 RMK A01 T03310052  RH  018%=      5-min Rain = 0
KMUS 260030Z 17009KT 33/05 A2992 RMK A01 T03290048  RH  018%=      5-min Rain = 0
KMUS 260035Z 18009KT 33/05 A2992 RMK A01 T03280048  RH  018%=      5-min Rain = 0
KMUS 260040Z 17010G15KT 33/04 A2992 RMK A01 T03270042  RH  017%=      5-min Rain = 0
KMUS 260045Z 18010KT 33/04 A2992 RMK A01 T03260038  RH  017%=      5-min Rain = 0
KMUS 260050Z 17008G13KT 32/04 A2993 RMK A01 T03240042  RH  017%=      5-min Rain = 0
KMUS 260055Z 16008KT 32/06 A2993 RMK A01 T03230056  RH  019%=      5-min Rain = 0
KMUS 260100Z 17009KT 32/05 A2993 RMK A01 T03210046  RH  018%=      5-min Rain = 0
KMUS 260105Z 17011KT 32/03 A2993 RMK A01 T03220034  RH  017%=      5-min Rain = 0
KMUS 260110Z 17012G18KT 32/04 A2994 RMK A01 T03200040  RH  017%=      5-min Rain = 0
KMUS 260115Z 16012KT 32/06 A2994 RMK A01 T03180062  RH  021%=      5-min Rain = 0
KMUS 260120Z 16012KT 31/08 A2994 RMK A01 T03130078  RH  024%=      5-min Rain = 0
KMUS 260125Z 16013KT 31/08 A2994 RMK A01 T03120079  RH  024%=      5-min Rain = 0
KMUS 260130Z 16011KT 31/08 A2995 RMK A01 T03100083  RH  025%=      5-min Rain = 0
KMUS 260135Z 16014KT 31/08 A2995 RMK A01 T03070082  RH  025%=      5-min Rain = 0
KMUS 260140Z 15013KT 31/08 A2995 RMK A01 T03050082  RH  026%=      5-min Rain = 0
KMUS 260145Z 15014KT 30/08 A2996 RMK A01 T03030081  RH  026%=      5-min Rain = 0
KMUS 260150Z 15012KT 30/08 A2996 RMK A01 T03010081  RH  026%=      5-min Rain = 0
KMUS 260155Z 14011KT 30/08 A2997 RMK A01 T02990081  RH  026%=      5-min Rain = 0
KMUS 260200Z 13010KT 29/08 A2997 RMK A01 T02940083  RH  028%=      5-min Rain = 0
KMUS 260205Z 13012KT 29/08 A2997 RMK A01 T02880083  RH  028%=      5-min Rain = 0
KMUS 260210Z 13013G18KT 29/09 A2998 RMK A01 T02890085  RH  029%=      5-min Rain = 0
KMUS 260215Z 13013G19KT 29/10 A2998 RMK A01 T02890095  RH  031%=      5-min Rain = 0
KMUS 260220Z 13015G21KT 29/11 A2999 RMK A01 T02870109  RH  034%=      5-min Rain = 0
KMUS 260225Z 12015G22KT 29/12 A2999 RMK A01 T02860124  RH  038%=      5-min Rain = 0
KMUS 260230Z 11017G23KT 28/13 A30 RMK A01 T02840134  RH  041%=      5-min Rain = 0
KMUS 260235Z 11019G24KT 28/14 A30 RMK A01 T02820144  RH  045%=      5-min Rain = 0
KMUS 260240Z 09024G32KT 27/14 A3001 RMK A01 T02670137  RH  047%=      5-min Rain = 0
KMUS 260245Z 08025G31KT 24/13 A3002 RMK A01 T02420134  RH  053%=      5-min Rain = 0
KMUS 260250Z 09026G33KT 24/13 A3002 RMK A01 T02370134  RH  054%=      5-min Rain = 0
KMUS 260255Z 09022G30KT 24/13 A3003 RMK A01 T02350134  RH  055%=      5-min Rain = 0
KMUS 260300Z 10023G30KT 24/14 A3004 RMK A01 T02350135  RH  056%=      5-min Rain = 0
KMUS 260305Z 10022G27KT 24/14 A3004 RMK A01 T02350135  RH  056%=      5-min Rain = 0
KMUS 260310Z 10024G33KT 24/14 A3005 RMK A01 T02350135  RH  055%=      5-min Rain = 0
KMUS 260315Z 10022G29KT 24/13 A3005 RMK A01 T02350134  RH  056%=      5-min Rain = 0
KMUS 260320Z 10021G31KT 23/14 A3005 RMK A01 T02340135  RH  056%=      5-min Rain = 0
KMUS 260325Z 11021G28KT 23/14 A3006 RMK A01 T02330135  RH  056%=      5-min Rain = 0
KMUS 260330Z 10023G29KT 23/14 A3006 RMK A01 T02320135  RH  056%=      5-min Rain = 0
KMUS 260335Z 11023KT 23/14 A3007 RMK A01 T02320135  RH  057%=      5-min Rain = 0
KMUS 260340Z 11022G28KT 23/14 A3007 RMK A01 T02310135  RH  057%=      5-min Rain = 0
KMUS 260345Z 11023G32KT 23/14 A3008 RMK A01 T02300135  RH  057%=      5-min Rain = 0
KMUS 260350Z 11023G29KT 23/13 A3008 RMK A01 T02300134  RH  057%=      5-min Rain = 0
KMUS 260355Z 11023G28KT 23/13 A3008 RMK A01 T02300134  RH  057%=      5-min Rain = 0
KMUS 260400Z 11022G30KT 23/13 A3008 RMK A01 T02300134  RH  057%=      5-min Rain = 0
KMUS 260405Z 11022G29KT 23/13 A3009 RMK A01 T02300134  RH  057%=      5-min Rain = 0
KMUS 260410Z 11022G28KT 23/13 A3009 RMK A01 T02310134  RH  057%=      5-min Rain = 0
KMUS 260415Z 11023G30KT 23/14 A3009 RMK A01 T02310135  RH  057%=      5-min Rain = 0
KMUS 260420Z 11021G28KT 23/14 A3009 RMK A01 T02310135  RH  057%=      5-min Rain = 0
KMUS 260425Z 11022G29KT 23/14 A3009 RMK A01 T02310135  RH  057%=      5-min Rain = 0
KMUS 260430Z 11020G27KT 23/14 A3009 RMK A01 T02290136  RH  058%=      5-min Rain = 0
KMUS 260435Z 11022G30KT 23/14 A3009 RMK A01 T02300136  RH  058%=      5-min Rain = 0
KMUS 260440Z 11023G29KT 23/14 A3009 RMK A01 T02310136  RH  057%=      5-min Rain = 0
KMUS 260445Z 12023G29KT 23/14 A3009 RMK A01 T02310136  RH  057%=      5-min Rain = 0
KMUS 260450Z 12021G29KT 23/14 A3009 RMK A01 T02310136  RH  057%=      5-min Rain = 0
KMUS 260455Z 12023G31KT 23/14 A3009 RMK A01 T02310138  RH  058%=      5-min Rain = 0

Page generated in 0.0092 seconds.